createdAt,value
2023-01-30T00:02:01.294Z,94.61
2023-01-30T00:04:29.320Z,94.76
2023-01-30T00:06:57.299Z,94.03
2023-01-30T00:09:25.359Z,94.17
2023-01-30T00:11:53.296Z,94.11
2023-01-30T00:14:21.356Z,94.13
2023-01-30T00:16:50.630Z,93.84
2023-01-30T00:19:18.445Z,94.64
2023-01-30T00:21:46.293Z,94.24
2023-01-30T00:24:14.523Z,94.76
2023-01-30T00:26:42.426Z,94.13
2023-01-30T00:29:10.610Z,94.58
2023-01-30T00:31:38.478Z,94.29
2023-01-30T00:34:07.965Z,94.83
2023-01-30T00:36:35.977Z,94.58
2023-01-30T00:39:04.239Z,94.84
2023-01-30T00:41:46.350Z,94.88
2023-01-30T00:44:31.419Z,94.95
2023-01-30T00:47:09.265Z,94.50
2023-01-30T00:49:39.257Z,94.29
2023-01-30T00:52:07.273Z,94.88
2023-01-30T00:54:35.669Z,94.07
2023-01-30T00:57:03.545Z,94.33
2023-01-30T00:59:31.703Z,94.29
2023-01-30T01:01:59.951Z,94.33
2023-01-30T01:04:27.989Z,94.39
2023-01-30T01:06:57.284Z,95.17
2023-01-30T01:09:25.201Z,94.43
2023-01-30T01:11:53.097Z,94.76
2023-01-30T01:14:20.992Z,94.20
2023-01-30T01:16:49.107Z,93.37
2023-01-30T01:19:17.561Z,93.58
2023-01-30T01:21:46.096Z,93.89
2023-01-30T01:24:16.993Z,94.06
2023-01-30T01:26:46.086Z,94.09
2023-01-30T01:29:15.411Z,94.13
2023-01-30T01:31:44.004Z,94.35
2023-01-30T01:34:12.624Z,94.03
2023-01-30T01:36:55.845Z,94.48
2023-01-30T01:39:45.440Z,94.76
2023-01-30T01:42:12.357Z,95.20
2023-01-30T01:45:12.364Z,95.65
2023-01-30T01:47:44.601Z,95.33
2023-01-30T01:50:17.123Z,96.31
2023-01-30T01:52:45.689Z,96.67
2023-01-30T01:55:16.963Z,96.88
2023-01-30T01:57:49.356Z,97.77
2023-01-30T02:00:19.507Z,97.77
2023-01-30T02:02:55.395Z,98.26
2023-01-30T02:05:24.655Z,99.08
2023-01-30T02:07:56.732Z,99.38
2023-01-30T02:10:31.850Z,99.60
2023-01-30T02:12:59.796Z,100.00
2023-01-30T02:15:27.631Z,99.84
2023-01-30T02:17:55.696Z,100.00
2023-01-30T02:20:32.742Z,100.00
2023-01-30T02:23:42.011Z,100.00
2023-01-30T02:26:44.107Z,100.00
2023-01-30T02:29:34.364Z,100.00
2023-01-30T02:32:09.052Z,100.00
2023-01-30T02:34:47.000Z,100.00
2023-01-30T02:37:28.504Z,100.00
2023-01-30T02:40:16.693Z,100.00
2023-01-30T02:42:52.749Z,100.00
2023-01-30T02:45:25.182Z,100.00
2023-01-30T02:48:00.915Z,100.00
2023-01-30T02:50:34.570Z,100.00
2023-01-30T02:53:04.554Z,100.00
2023-01-30T02:55:32.401Z,100.00
2023-01-30T02:58:01.405Z,100.00
2023-01-30T03:00:41.112Z,100.00
2023-01-30T03:03:27.072Z,100.00
2023-01-30T03:06:22.589Z,100.00
2023-01-30T03:09:01.397Z,100.00
2023-01-30T03:11:39.272Z,100.00
2023-01-30T03:14:16.131Z,100.00
2023-01-30T03:16:45.849Z,100.00
2023-01-30T03:19:15.206Z,100.00
2023-01-30T03:21:44.791Z,100.00
2023-01-30T03:24:13.257Z,100.00
2023-01-30T03:26:46.336Z,100.00
2023-01-30T03:29:14.205Z,100.00
2023-01-30T03:31:42.270Z,100.00
2023-01-30T03:34:10.496Z,100.00
2023-01-30T03:36:39.775Z,100.00
2023-01-30T03:39:08.441Z,100.00
2023-01-30T03:41:36.537Z,100.00
2023-01-30T03:44:04.478Z,100.00
2023-01-30T03:46:32.339Z,100.00
2023-01-30T03:49:00.254Z,100.00
2023-01-30T03:51:28.119Z,100.00
2023-01-30T03:53:57.454Z,100.00
2023-01-30T03:56:25.681Z,100.00
2023-01-30T03:58:53.547Z,100.00
2023-01-30T04:01:21.668Z,100.00
2023-01-30T04:03:49.700Z,100.00
2023-01-30T04:06:17.636Z,100.00
2023-01-30T04:08:45.574Z,100.00
2023-01-30T04:11:15.015Z,100.00
2023-01-30T04:13:42.822Z,100.00
2023-01-30T04:16:19.074Z,100.00
2023-01-30T04:18:46.955Z,100.00
2023-01-30T04:21:15.906Z,100.00
2023-01-30T04:23:44.532Z,100.00
2023-01-30T04:26:14.909Z,100.00
2023-01-30T04:28:44.499Z,100.00
2023-01-30T04:31:12.686Z,100.00
2023-01-30T04:33:41.430Z,100.00
2023-01-30T04:36:11.207Z,100.00
2023-01-30T04:38:39.834Z,100.00
2023-01-30T04:41:07.722Z,98.97
2023-01-30T04:43:37.129Z,98.11
2023-01-30T04:46:05.234Z,97.96
2023-01-30T04:48:33.336Z,97.52
2023-01-30T04:51:01.359Z,97.17
2023-01-30T04:53:29.271Z,96.85
2023-01-30T04:55:57.186Z,96.41
2023-01-30T04:58:25.095Z,96.75
2023-01-30T05:00:54.468Z,96.41
2023-01-30T05:03:22.518Z,97.68
2023-01-30T05:05:50.698Z,97.14
2023-01-30T05:08:18.620Z,97.65
2023-01-30T05:10:46.541Z,96.42
2023-01-30T05:13:14.478Z,96.45
2023-01-30T05:15:42.369Z,96.77
2023-01-30T05:18:11.627Z,96.42
2023-01-30T05:20:39.481Z,95.48
2023-01-30T05:23:07.372Z,94.08
2023-01-30T05:25:35.267Z,94.55
2023-01-30T05:28:03.439Z,94.59
2023-01-30T05:30:31.408Z,95.84
2023-01-30T05:33:00.107Z,94.53
2023-01-30T05:35:30.430Z,94.81
2023-01-30T05:37:59.477Z,93.44
2023-01-30T05:40:28.081Z,92.71
2023-01-30T05:42:56.085Z,92.39
2023-01-30T05:45:24.179Z,91.95
2023-01-30T05:47:56.242Z,91.32
2023-01-30T05:50:24.945Z,92.25
2023-01-30T05:52:54.298Z,91.49
2023-01-30T05:55:22.168Z,91.04
2023-01-30T05:57:50.049Z,89.85
2023-01-30T06:00:18.884Z,90.75
2023-01-30T06:02:47.153Z,89.98
2023-01-30T06:05:15.469Z,89.11
2023-01-30T06:07:43.588Z,89.79
2023-01-30T06:10:13.449Z,90.35
2023-01-30T06:12:41.379Z,89.89
2023-01-30T06:15:10.377Z,89.56
2023-01-30T06:17:38.225Z,89.24
2023-01-30T06:20:07.036Z,88.78
2023-01-30T06:22:34.876Z,88.75
2023-01-30T06:25:02.732Z,87.96
2023-01-30T06:27:32.116Z,89.28
2023-01-30T06:29:59.926Z,89.03
2023-01-30T06:32:27.745Z,88.26
2023-01-30T06:34:55.607Z,88.73
2023-01-30T06:37:23.473Z,88.89
2023-01-30T06:39:51.339Z,89.43
2023-01-30T06:42:19.312Z,90.16
2023-01-30T06:44:48.574Z,91.22
2023-01-30T06:47:16.472Z,91.05
2023-01-30T06:49:44.379Z,91.50
2023-01-30T06:52:12.235Z,90.81
2023-01-30T06:54:40.123Z,91.61
2023-01-30T06:57:08.080Z,90.89
2023-01-30T06:59:36.016Z,89.66
2023-01-30T07:02:05.426Z,90.56
2023-01-30T07:04:33.508Z,89.40
2023-01-30T07:07:01.507Z,89.57
2023-01-30T07:09:29.424Z,88.06
2023-01-30T07:11:57.449Z,88.50
2023-01-30T07:14:25.371Z,87.89
2023-01-30T07:16:53.377Z,88.60
2023-01-30T07:19:22.639Z,88.55
2023-01-30T07:21:50.503Z,88.41
2023-01-30T07:24:18.474Z,87.71
2023-01-30T07:26:48.927Z,87.27
2023-01-30T07:29:16.915Z,87.78
2023-01-30T07:31:44.861Z,87.51
2023-01-30T07:34:12.772Z,86.50
2023-01-30T07:36:42.094Z,86.40
2023-01-30T07:39:10.295Z,86.27
2023-01-30T07:41:38.134Z,86.90
2023-01-30T07:44:07.823Z,87.58
2023-01-30T07:46:35.994Z,86.51
2023-01-30T07:49:04.062Z,86.50
2023-01-30T07:51:32.142Z,86.12
2023-01-30T07:54:02.138Z,84.97
2023-01-30T07:56:30.062Z,85.70
2023-01-30T07:58:58.329Z,85.22
2023-01-30T08:01:26.293Z,86.36
2023-01-30T08:03:54.279Z,85.54
2023-01-30T08:06:22.243Z,86.81
2023-01-30T08:08:50.540Z,86.66
2023-01-30T08:11:19.767Z,85.35
2023-01-30T08:13:48.058Z,84.87
2023-01-30T08:16:16.068Z,85.38
2023-01-30T08:18:44.253Z,84.84
2023-01-30T08:21:12.845Z,84.04
2023-01-30T08:23:40.873Z,84.33
2023-01-30T08:26:08.818Z,84.47
2023-01-30T08:28:38.014Z,84.52
2023-01-30T08:31:11.118Z,83.74
2023-01-30T08:33:39.146Z,83.72
2023-01-30T08:36:07.725Z,82.29
2023-01-30T08:38:35.687Z,81.79
2023-01-30T08:41:06.722Z,80.95
2023-01-30T08:43:34.934Z,80.71
2023-01-30T08:46:04.931Z,79.93
2023-01-30T08:48:43.508Z,79.60
2023-01-30T08:51:17.022Z,79.96
2023-01-30T08:53:44.914Z,79.44
2023-01-30T08:56:12.709Z,80.09
2023-01-30T08:58:43.797Z,80.75
2023-01-30T09:01:13.203Z,79.76
2023-01-30T09:03:42.677Z,79.86
2023-01-30T09:06:10.925Z,79.12
2023-01-30T09:08:38.821Z,80.00
2023-01-30T09:11:07.537Z,78.63
2023-01-30T09:13:36.121Z,78.06
2023-01-30T09:16:04.611Z,78.89
2023-01-30T09:18:33.951Z,78.54
2023-01-30T09:21:05.609Z,77.19
2023-01-30T09:23:33.551Z,75.82
2023-01-30T09:26:02.337Z,76.73
2023-01-30T09:28:30.306Z,75.11
2023-01-30T09:30:59.236Z,74.87
2023-01-30T09:33:27.485Z,74.63
2023-01-30T09:35:57.280Z,73.69
2023-01-30T09:38:25.324Z,73.71
2023-01-30T09:41:05.931Z,73.21
2023-01-30T09:43:53.809Z,74.22
2023-01-30T09:46:32.002Z,74.31
2023-01-30T09:49:11.181Z,74.40
2023-01-30T09:52:04.735Z,73.49
2023-01-30T09:54:35.972Z,73.85
2023-01-30T09:57:21.061Z,74.72
2023-01-30T09:59:59.062Z,75.47
2023-01-30T10:02:49.072Z,77.43
2023-01-30T10:05:17.452Z,75.54
2023-01-30T10:08:16.134Z,76.54
2023-01-30T10:11:00.812Z,79.30
2023-01-30T10:13:59.242Z,81.76
2023-01-30T10:16:32.584Z,82.55
2023-01-30T10:19:36.487Z,84.54
2023-01-30T10:22:15.865Z,84.72
2023-01-30T10:24:56.178Z,86.00
2023-01-30T10:27:27.331Z,87.18
2023-01-30T10:29:58.166Z,87.28
2023-01-30T10:32:31.916Z,88.27
2023-01-30T10:35:06.427Z,88.15
2023-01-30T10:37:42.974Z,87.65
2023-01-30T10:40:24.260Z,88.12
2023-01-30T10:43:04.627Z,84.79
2023-01-30T10:45:39.406Z,84.27
2023-01-30T10:48:34.306Z,83.76
2023-01-30T10:51:22.573Z,83.13
2023-01-30T10:53:56.501Z,83.18
2023-01-30T10:56:34.602Z,82.71
2023-01-30T10:59:15.176Z,83.68
2023-01-30T11:01:46.194Z,82.85
2023-01-30T11:04:28.901Z,83.15
2023-01-30T11:06:58.519Z,83.62
2023-01-30T11:09:38.485Z,86.64
2023-01-30T11:12:07.956Z,89.29
2023-01-30T11:14:53.161Z,89.24
2023-01-30T11:17:23.015Z,89.39
2023-01-30T11:19:57.848Z,89.48
2023-01-30T11:22:27.669Z,90.30
2023-01-30T11:25:04.570Z,91.19
2023-01-30T11:27:36.018Z,91.87
2023-01-30T11:30:15.056Z,92.45
2023-01-30T11:32:44.811Z,91.09
2023-01-30T11:35:26.893Z,90.18
2023-01-30T11:37:55.487Z,90.58
2023-01-30T11:40:31.319Z,90.50
2023-01-30T11:43:07.032Z,90.53
2023-01-30T11:45:39.965Z,89.62
2023-01-30T11:48:32.924Z,88.57
2023-01-30T11:51:07.601Z,87.72
2023-01-30T11:53:39.138Z,87.08
2023-01-30T11:56:13.028Z,86.68
2023-01-30T11:58:46.350Z,86.40
2023-01-30T12:01:16.254Z,85.18
2023-01-30T12:03:50.402Z,83.60
2023-01-30T12:06:29.828Z,82.82
2023-01-30T12:08:58.491Z,82.34
2023-01-30T12:11:30.580Z,83.54
2023-01-30T12:14:16.351Z,82.85
2023-01-30T12:16:55.660Z,83.07
2023-01-30T12:19:44.773Z,83.16
2023-01-30T12:22:22.578Z,81.74
2023-01-30T12:24:59.197Z,81.68
2023-01-30T12:27:38.612Z,82.92
2023-01-30T12:30:22.583Z,84.26
2023-01-30T12:32:50.787Z,84.10
2023-01-30T12:35:20.497Z,83.63
2023-01-30T12:38:01.860Z,83.97
2023-01-30T12:40:45.994Z,85.53
2023-01-30T12:43:35.105Z,86.75
2023-01-30T12:46:17.403Z,87.29
2023-01-30T12:49:12.090Z,87.64
2023-01-30T12:52:02.933Z,88.15
2023-01-30T12:54:46.083Z,88.84
2023-01-30T12:57:24.394Z,88.85
2023-01-30T13:00:05.068Z,88.55
2023-01-30T13:02:52.225Z,88.38
2023-01-30T13:05:33.145Z,88.46
2023-01-30T13:08:12.784Z,87.37
2023-01-30T13:10:47.993Z,86.91
2023-01-30T13:13:22.897Z,87.12
2023-01-30T13:15:58.450Z,86.72
2023-01-30T13:18:35.635Z,86.13
2023-01-30T13:21:09.456Z,85.05
2023-01-30T13:23:50.418Z,84.81
2023-01-30T13:26:22.708Z,84.47
2023-01-30T13:28:54.276Z,84.02
2023-01-30T13:31:26.453Z,82.53
2023-01-30T13:34:06.374Z,81.46
2023-01-30T13:36:41.321Z,80.91
2023-01-30T13:39:14.436Z,81.50
2023-01-30T13:41:48.314Z,82.40
2023-01-30T13:44:22.560Z,81.76
2023-01-30T13:46:54.075Z,83.26
2023-01-30T13:49:30.509Z,83.18
2023-01-30T13:52:03.945Z,85.22
2023-01-30T13:54:43.495Z,86.31
2023-01-30T13:57:21.894Z,88.21
2023-01-30T14:00:20.295Z,89.43
2023-01-30T14:03:32.277Z,89.77
2023-01-30T14:06:09.557Z,90.16
2023-01-30T14:08:49.521Z,90.20
2023-01-30T14:11:34.503Z,90.95
2023-01-30T14:14:09.758Z,90.71
2023-01-30T14:16:43.318Z,89.74
2023-01-30T14:19:23.633Z,89.53
2023-01-30T14:21:58.854Z,87.96
2023-01-30T14:24:28.634Z,87.25
2023-01-30T14:27:05.717Z,86.58
2023-01-30T14:29:54.335Z,85.87
2023-01-30T14:32:55.033Z,85.69
2023-01-30T14:35:30.567Z,85.41
2023-01-30T14:38:15.641Z,85.16
2023-01-30T14:40:49.477Z,85.92
2023-01-30T14:43:37.828Z,85.08
2023-01-30T14:46:09.059Z,84.52
2023-01-30T14:48:44.725Z,84.30
2023-01-30T14:51:23.148Z,83.63
2023-01-30T14:53:56.229Z,82.50
2023-01-30T14:56:42.537Z,81.09
2023-01-30T14:59:22.607Z,80.14
2023-01-30T15:02:00.853Z,79.79
2023-01-30T15:04:32.886Z,80.10
2023-01-30T15:07:07.837Z,78.55
2023-01-30T15:09:40.006Z,78.60
2023-01-30T15:12:35.397Z,77.64
2023-01-30T15:15:13.057Z,77.60
2023-01-30T15:18:07.122Z,76.82
2023-01-30T15:20:47.249Z,76.22
2023-01-30T15:23:43.707Z,75.93
2023-01-30T15:26:29.203Z,75.97
2023-01-30T15:29:09.468Z,76.89
2023-01-30T15:31:37.524Z,75.97
2023-01-30T15:34:20.160Z,75.83
2023-01-30T15:36:48.082Z,75.40
2023-01-30T15:39:21.328Z,74.93
2023-01-30T15:41:52.614Z,73.15
2023-01-30T15:44:49.988Z,73.35
2023-01-30T15:47:28.578Z,73.71
2023-01-30T15:50:00.909Z,72.89
2023-01-30T15:52:40.150Z,73.53
2023-01-30T15:55:16.943Z,74.46
2023-01-30T15:57:57.713Z,73.99
2023-01-30T16:00:30.023Z,74.07
2023-01-30T16:03:00.236Z,73.86
2023-01-30T16:05:28.872Z,74.64
2023-01-30T16:07:59.717Z,74.54
2023-01-30T16:10:32.603Z,74.71
2023-01-30T16:13:04.962Z,74.39
2023-01-30T16:15:40.333Z,75.09
2023-01-30T16:18:20.261Z,75.91
2023-01-30T16:21:01.695Z,75.81
2023-01-30T16:23:33.138Z,75.70
2023-01-30T16:26:01.909Z,75.92
2023-01-30T16:28:33.440Z,75.18
2023-01-30T16:31:03.716Z,76.08
2023-01-30T16:33:36.693Z,76.04
2023-01-30T16:36:06.342Z,76.18
2023-01-30T16:38:40.917Z,76.30
2023-01-30T16:41:30.893Z,75.91
2023-01-30T16:44:31.268Z,76.99
2023-01-30T16:47:01.897Z,77.24
2023-01-30T16:49:45.578Z,77.55
2023-01-30T16:52:23.477Z,77.17
2023-01-30T16:54:53.827Z,78.04
2023-01-30T16:57:31.790Z,77.26
2023-01-30T17:00:03.636Z,76.83
2023-01-30T17:02:36.235Z,77.14
2023-01-30T17:05:21.468Z,76.25
2023-01-30T17:07:50.841Z,76.10
2023-01-30T17:10:51.381Z,75.65
2023-01-30T17:13:36.182Z,74.56
2023-01-30T17:16:32.074Z,74.00
2023-01-30T17:19:00.921Z,74.27
2023-01-30T17:21:32.724Z,73.38
2023-01-30T17:24:02.967Z,73.16
2023-01-30T17:26:31.297Z,72.67
2023-01-30T17:28:59.508Z,72.33
2023-01-30T17:31:28.855Z,72.48
2023-01-30T17:33:56.763Z,72.42
2023-01-30T17:36:28.041Z,72.33
2023-01-30T17:38:56.812Z,72.63
2023-01-30T17:41:30.328Z,73.54
2023-01-30T17:43:58.585Z,72.58
2023-01-30T17:46:35.055Z,73.05
2023-01-30T17:49:03.430Z,73.72
2023-01-30T17:51:31.316Z,73.93
2023-01-30T17:53:59.322Z,73.08
2023-01-30T17:56:35.750Z,72.99
2023-01-30T17:59:05.794Z,73.00
2023-01-30T18:01:35.213Z,72.26
2023-01-30T18:04:03.133Z,72.25
2023-01-30T18:06:32.213Z,71.95
2023-01-30T18:09:00.175Z,71.88
2023-01-30T18:11:28.053Z,71.61
2023-01-30T18:13:56.091Z,71.17
2023-01-30T18:16:26.864Z,71.51
2023-01-30T18:18:56.302Z,70.76
2023-01-30T18:21:24.132Z,70.37
2023-01-30T18:23:52.069Z,70.87
2023-01-30T18:26:20.612Z,70.53
2023-01-30T18:28:49.085Z,70.34
2023-01-30T18:31:17.461Z,70.57
2023-01-30T18:33:45.802Z,70.99
2023-01-30T18:36:17.860Z,70.61
2023-01-30T18:38:46.360Z,70.95
2023-01-30T18:41:16.621Z,71.60
2023-01-30T18:43:45.895Z,72.24
2023-01-30T18:46:15.768Z,72.13
2023-01-30T18:48:44.724Z,72.46
2023-01-30T18:51:18.257Z,72.51
2023-01-30T18:53:47.990Z,73.44
2023-01-30T18:56:18.058Z,73.02
2023-01-30T18:58:46.132Z,73.62
2023-01-30T19:01:16.396Z,73.59
2023-01-30T19:03:45.015Z,73.42
2023-01-30T19:06:17.693Z,72.39
2023-01-30T19:08:46.835Z,72.23
2023-01-30T19:11:34.479Z,72.18
2023-01-30T19:14:03.675Z,71.41
2023-01-30T19:16:33.967Z,71.24
2023-01-30T19:19:02.728Z,70.67
2023-01-30T19:21:32.620Z,70.79
2023-01-30T19:24:03.303Z,70.37
2023-01-30T19:26:31.182Z,70.49
2023-01-30T19:28:59.372Z,69.97
2023-01-30T19:31:27.384Z,70.48
2023-01-30T19:33:58.201Z,70.87
2023-01-30T19:36:27.869Z,71.36
2023-01-30T19:38:59.415Z,71.75
2023-01-30T19:41:30.424Z,72.25
2023-01-30T19:44:00.451Z,72.48
2023-01-30T19:46:28.874Z,72.97
2023-01-30T19:48:57.536Z,73.21
2023-01-30T19:51:27.564Z,73.39
2023-01-30T19:53:58.379Z,73.75
2023-01-30T19:56:27.295Z,74.21
2023-01-30T19:58:57.240Z,74.24
2023-01-30T20:01:29.791Z,74.62
2023-01-30T20:03:59.028Z,74.13
2023-01-30T20:06:29.267Z,74.06
2023-01-30T20:09:01.048Z,73.75
2023-01-30T20:11:29.437Z,74.26
2023-01-30T20:13:57.892Z,74.36
2023-01-30T20:16:29.458Z,74.47
2023-01-30T20:18:59.606Z,74.43
2023-01-30T20:21:30.982Z,74.22
2023-01-30T20:24:01.094Z,74.33
2023-01-30T20:26:30.940Z,74.59
2023-01-30T20:28:59.323Z,74.15
2023-01-30T20:31:28.901Z,74.75
2023-01-30T20:33:57.919Z,74.44
2023-01-30T20:36:27.507Z,73.83
2023-01-30T20:38:56.573Z,73.35
2023-01-30T20:41:29.220Z,73.32
2023-01-30T20:43:58.383Z,73.14
2023-01-30T20:46:28.449Z,72.69
2023-01-30T20:48:57.895Z,72.59
2023-01-30T20:51:28.709Z,72.63
2023-01-30T20:53:58.071Z,72.35
2023-01-30T20:56:31.215Z,72.45
2023-01-30T20:58:59.265Z,72.50
2023-01-30T21:01:27.192Z,72.21
2023-01-30T21:03:55.690Z,71.15
2023-01-30T21:06:41.295Z,70.36
2023-01-30T21:09:12.891Z,70.20
2023-01-30T21:11:42.501Z,70.17
2023-01-30T21:14:10.844Z,70.41
2023-01-30T21:16:39.531Z,69.72
2023-01-30T21:19:09.857Z,70.15
2023-01-30T21:21:42.957Z,70.44
2023-01-30T21:24:14.847Z,70.46
2023-01-30T21:26:46.470Z,71.21
2023-01-30T21:29:16.635Z,71.90
2023-01-30T21:31:45.407Z,71.42
2023-01-30T21:34:14.069Z,71.88
2023-01-30T21:36:42.100Z,72.54
2023-01-30T21:39:32.010Z,72.41
2023-01-30T21:42:21.203Z,72.82
2023-01-30T21:44:49.236Z,73.46
2023-01-30T21:47:17.113Z,73.00
2023-01-30T21:49:45.610Z,73.54
2023-01-30T21:52:13.473Z,73.44
2023-01-30T21:54:41.405Z,73.64
2023-01-30T21:57:10.854Z,73.93
2023-01-30T21:59:38.992Z,73.61
2023-01-30T22:02:07.296Z,73.54
2023-01-30T22:04:36.617Z,73.33
2023-01-30T22:07:06.829Z,73.31
2023-01-30T22:09:35.173Z,73.68
2023-01-30T22:12:03.501Z,72.84
2023-01-30T22:14:35.219Z,72.27
2023-01-30T22:17:03.193Z,72.15
2023-01-30T22:19:35.485Z,72.50
2023-01-30T22:22:03.972Z,71.60
2023-01-30T22:24:32.297Z,71.71
2023-01-30T22:27:00.166Z,71.42
2023-01-30T22:29:29.154Z,71.82
2023-01-30T22:31:58.534Z,71.82
2023-01-30T22:34:26.531Z,72.16
2023-01-30T22:36:54.471Z,71.25
2023-01-30T22:39:22.427Z,70.83
2023-01-30T22:41:50.259Z,70.59
2023-01-30T22:44:18.133Z,70.84
2023-01-30T22:46:46.042Z,70.43
2023-01-30T22:49:15.234Z,70.64
2023-01-30T22:51:43.606Z,70.63
2023-01-30T22:54:15.547Z,70.93
2023-01-30T22:56:45.017Z,70.87
2023-01-30T22:59:13.558Z,71.69
2023-01-30T23:01:43.051Z,71.08
2023-01-30T23:04:13.487Z,71.19
2023-01-30T23:06:43.757Z,70.82
2023-01-30T23:09:17.261Z,71.40
2023-01-30T23:12:07.982Z,71.63
2023-01-30T23:14:35.779Z,71.59
2023-01-30T23:17:25.372Z,72.12
2023-01-30T23:19:52.624Z,72.17
2023-01-30T23:22:21.973Z,73.15
2023-01-30T23:24:51.182Z,73.43
2023-01-30T23:27:19.670Z,73.77
2023-01-30T23:29:47.671Z,73.52
2023-01-30T23:32:19.084Z,73.46
2023-01-30T23:34:47.122Z,73.69
2023-01-30T23:37:15.023Z,73.43
2023-01-30T23:39:44.675Z,73.59
2023-01-30T23:42:12.663Z,73.37
2023-01-30T23:44:40.505Z,73.29
2023-01-30T23:47:08.434Z,73.35
2023-01-30T23:49:36.391Z,72.41
2023-01-30T23:52:04.225Z,72.01
2023-01-30T23:54:32.126Z,72.35
2023-01-30T23:57:01.567Z,72.26
2023-01-30T23:59:29.389Z,72.40
